Time;durP1;ratioP1;P1;durP2;ratioP2;P2;SDS_P1;SDS_P2;PMS_P1;PMS_P2;Temp;Humidity;BMP_temperature;BMP_pressure;BME280_temperature;BME280_humidity;BME280_pressure;Samples;Min_cycle;Max_cycle;Signal;HPM_P1;HPM_P2
2023/09/11 00:02:13;;;;;;;;;25.25;22.75;;;;;28.25;52.91;100974.88;5038491;28;45434;-72
2023/09/11 00:04:41;;;;;;;;;20.25;18.25;;;;;28.08;53.86;100943.69;5038758;28;45423;-72
2023/09/11 00:07:06;;;;;;;;;20.25;20.25;;;;;28.19;53.54;100962.66;5038211;28;46807;-72
2023/09/11 00:09:32;;;;;;;;;21.75;20.50;;;;;28.19;53.91;100975.53;5037301;28;45325;-72
2023/09/11 00:11:57;;;;;;;;;19.00;19.00;;;;;28.17;54.17;100981.19;5053744;28;45315;-72
2023/09/11 00:14:23;;;;;;;;;21.25;21.25;;;;;27.91;54.71;100939.94;5038310;28;45485;-72
2023/09/11 00:16:48;;;;;;;;;20.25;20.25;;;;;28.04;54.31;100961.50;5038191;28;45663;-72
2023/09/11 00:19:16;;;;;;;;;21.50;20.00;;;;;28.11;54.45;100969.97;5038475;28;45393;-72
2023/09/11 00:21:43;;;;;;;;;20.25;19.50;;;;;27.90;54.12;100944.56;5042033;28;45439;-72
2023/09/11 00:24:08;;;;;;;;;18.25;17.50;;;;;28.00;54.54;100960.97;5057312;28;45560;-72
2023/09/11 00:26:33;;;;;;;;;23.75;22.75;;;;;28.03;54.71;100965.25;5039114;28;46595;-72
2023/09/11 00:28:59;;;;;;;;;23.00;21.00;;;;;28.01;54.32;100970.91;5033889;28;45504;-72
2023/09/11 00:31:24;;;;;;;;;21.00;20.25;;;;;27.93;54.64;100957.13;5041484;28;46033;-72
2023/09/11 00:33:57;;;;;;;;;22.50;20.00;;;;;27.87;55.02;100949.50;5037850;28;46225;-72
2023/09/11 00:36:25;;;;;;;;;19.50;19.50;;;;;27.98;55.20;100957.50;5028455;28;45597;-72
2023/09/11 00:38:51;;;;;;;;;18.00;18.00;;;;;27.97;54.65;100960.44;5056224;28;45363;-72
2023/09/11 00:41:16;;;;;;;;;20.75;20.75;;;;;28.00;54.58;100966.47;5041872;28;45425;-72
2023/09/11 00:43:42;;;;;;;;;18.00;18.00;;;;;27.68;54.92;100913.00;5041248;28;45512;-72
2023/09/11 00:46:07;;;;;;;;;20.00;19.25;;;;;27.67;54.74;100924.13;5040248;28;47033;-72
2023/09/11 00:48:33;;;;;;;;;19.00;18.75;;;;;27.69;54.89;100916.59;5040856;28;45335;-72
2023/09/11 00:50:58;;;;;;;;;22.75;21.50;;;;;27.87;54.97;100941.28;5041825;28;45401;-72
2023/09/11 00:53:25;;;;;;;;;21.25;21.25;;;;;27.83;54.69;100939.84;5039924;28;45437;-72
2023/09/11 00:55:52;;;;;;;;;18.75;17.50;;;;;27.81;55.03;100941.91;5036184;28;45550;-72
2023/09/11 00:58:18;;;;;;;;;22.00;19.25;;;;;27.95;54.92;100965.19;5033498;28;45391;-72
2023/09/11 01:00:46;;;;;;;;;16.50;16.00;;;;;27.75;54.87;100923.31;5041112;28;45490;-72
2023/09/11 01:03:15;;;;;;;;;19.00;18.25;;;;;27.75;54.63;100937.03;5041320;28;45442;-72
2023/09/11 01:05:44;;;;;;;;;15.25;14.00;;;;;27.72;54.43;100919.03;5041292;28;45556;-72
2023/09/11 01:08:09;;;;;;;;;18.00;18.00;;;;;27.87;54.06;100949.50;5040613;28;45664;-72
2023/09/11 01:10:35;;;;;;;;;19.50;19.00;;;;;27.57;53.85;100902.28;5040872;28;46941;-72
2023/09/11 01:13:03;;;;;;;;;18.00;17.75;;;;;27.69;54.18;100931.16;5041187;28;45325;-72
2023/09/11 01:15:43;;;;;;;;;15.00;13.25;;;;;27.82;53.41;100951.88;5040963;28;45345;-72
2023/09/11 01:18:42;;;;;;;;;18.00;18.00;;;;;27.49;54.06;100894.81;5039373;28;45646;-72
2023/09/11 01:21:29;;;;;;;;;16.50;16.50;;;;;27.79;53.98;100957.66;5051836;28;45518;-72
2023/09/11 01:24:25;;;;;;;;;17.25;16.50;;;;;27.75;53.38;100948.88;5039379;28;45518;-72
2023/09/11 01:27:02;;;;;;;;;14.50;14.00;;;;;27.56;53.77;100922.47;5027646;28;47154;-72
2023/09/11 01:29:33;;;;;;;;;17.00;15.75;;;;;27.56;53.52;100927.94;5039496;28;45548;-72
2023/09/11 01:32:02;;;;;;;;;19.50;18.50;;;;;27.33;53.80;100889.16;5041149;28;45389;-72
2023/09/11 01:34:27;;;;;;;;;17.50;16.00;;;;;27.55;53.48;100939.97;5035624;28;45496;-72
2023/09/11 01:36:52;;;;;;;;;17.00;17.00;;;;;27.42;53.48;100923.03;5040732;28;46460;-72
2023/09/11 01:39:18;;;;;;;;;16.75;16.75;;;;;27.42;53.37;100928.50;5040585;28;45387;-72
2023/09/11 01:41:46;;;;;;;;;18.00;17.00;;;;;27.32;53.74;100926.69;5040960;28;45474;-72
2023/09/11 01:44:26;;;;;;;;;16.25;15.75;;;;;27.38;53.47;100946.25;5040350;28;45558;-72
2023/09/11 01:46:53;;;;;;;;;15.75;15.75;;;;;27.37;53.58;100936.34;5038928;28;47390;-72
2023/09/11 01:49:21;;;;;;;;;19.25;19.25;;;;;27.37;53.19;100941.81;5027420;28;45443;-72
2023/09/11 01:51:50;;;;;;;;;14.75;14.75;;;;;27.50;54.13;100976.06;5040789;28;45588;-72
2023/09/11 01:54:16;;;;;;;;;14.50;14.50;;;;;27.24;53.43;100933.94;5040301;28;45445;-72
2023/09/11 01:56:44;;;;;;;;;18.00;16.00;;;;;27.27;54.35;100941.84;5029418;28;45491;-72
2023/09/11 01:59:09;;;;;;;;;20.00;19.00;;;;;27.41;54.04;100965.16;5040138;28;45404;-72
2023/09/11 02:01:35;;;;;;;;;19.50;16.75;;;;;27.39;54.20;100970.78;5040637;28;45288;-72
2023/09/11 02:04:00;;;;;;;;;18.00;16.25;;;;;27.24;54.06;100937.50;5040383;28;45250;-72
2023/09/11 02:06:26;;;;;;;;;16.75;15.00;;;;;27.23;54.07;100944.03;5040395;28;45548;-72
2023/09/11 02:08:54;;;;;;;;;16.75;16.75;;;;;27.25;54.60;100942.00;5040237;28;45382;-72
2023/09/11 02:11:19;;;;;;;;;17.25;17.25;;;;;27.25;54.11;100941.09;5040399;28;45396;-72
2023/09/11 02:13:44;;;;;;;;;13.50;12.50;;;;;27.16;54.39;100938.31;5040082;28;45297;-72
2023/09/11 02:16:13;;;;;;;;;19.75;17.00;;;;;27.27;54.26;100956.41;5040167;28;45596;-72
2023/09/11 02:18:41;;;;;;;;;15.75;15.00;;;;;27.27;54.29;100959.13;5025432;28;45622;-72
2023/09/11 02:21:07;;;;;;;;;19.75;16.75;;;;;27.14;54.54;100929.34;5038820;28;45344;-72
2023/09/11 02:23:35;;;;;;;;;17.25;16.00;;;;;27.17;54.58;100945.50;5038583;28;45530;-72
2023/09/11 02:26:00;;;;;;;;;17.00;15.75;;;;;27.06;54.20;100933.88;5039989;28;46295;-72
2023/09/11 02:28:26;;;;;;;;;17.00;17.00;;;;;26.87;54.00;100911.06;5036307;28;45328;-72
2023/09/11 02:30:52;;;;;;;;;16.00;16.00;;;;;26.82;53.90;100905.19;5038438;28;45756;-72
2023/09/11 02:33:18;;;;;;;;;17.50;16.25;;;;;26.98;54.47;100930.03;5040025;28;45423;-72
2023/09/11 02:35:52;;;;;;;;;17.00;16.75;;;;;27.15;54.59;100960.38;5039590;28;45370;-72
2023/09/11 02:38:17;;;;;;;;;16.25;16.25;;;;;26.95;54.12;100935.81;5054950;28;45713;-72
2023/09/11 02:40:43;;;;;;;;;19.25;19.25;;;;;26.89;54.34;100933.66;5039663;28;45447;-72
2023/09/11 02:43:11;;;;;;;;;16.25;16.25;;;;;26.88;54.64;100937.44;5039154;28;45339;-72
2023/09/11 02:45:38;;;;;;;;;17.50;16.00;;;;;26.76;54.66;100913.97;5039391;28;46341;-72
2023/09/11 02:48:04;;;;;;;;;14.50;14.50;;;;;26.88;54.69;100942.03;5039872;28;45543;-72
2023/09/11 02:50:30;;;;;;;;;16.00;15.00;;;;;26.84;54.93;100938.75;5039706;28;45518;-72
2023/09/11 02:52:55;;;;;;;;;17.00;16.50;;;;;26.76;54.90;100919.47;5039453;28;45681;-72
2023/09/11 02:55:21;;;;;;;;;14.75;14.75;;;;;26.80;54.56;100927.22;5038268;28;46004;-72
2023/09/11 02:57:46;;;;;;;;;18.00;16.25;;;;;26.92;54.54;100949.81;5025880;28;45495;-72
2023/09/11 03:00:15;;;;;;;;;15.00;12.50;;;;;26.88;54.14;100947.50;5037925;28;45427;-72
2023/09/11 03:02:40;;;;;;;;;14.25;14.25;;;;;26.62;53.77;100905.22;5039751;28;45352;-72
2023/09/11 03:05:06;;;;;;;;;15.25;15.00;;;;;26.70;54.29;100920.94;5039273;28;45315;-72
2023/09/11 03:07:31;;;;;;;;;16.00;15.75;;;;;26.51;54.49;100893.59;5039505;28;45316;-72
2023/09/11 03:09:57;;;;;;;;;16.50;15.75;;;;;26.83;53.88;100941.63;5038095;28;45277;-72
2023/09/11 03:12:25;;;;;;;;;15.75;15.25;;;;;26.61;54.13;100911.72;5039242;28;45433;-72
2023/09/11 03:14:54;;;;;;;;;15.00;15.00;;;;;26.77;54.28;100937.63;5039008;28;46082;-72
2023/09/11 03:17:22;;;;;;;;;16.00;16.00;;;;;26.56;54.26;100894.91;5039285;28;45527;-72
2023/09/11 03:19:47;;;;;;;;;12.25;12.00;;;;;26.74;54.22;100922.34;5037907;28;45408;-72
2023/09/11 03:22:13;;;;;;;;;16.25;14.75;;;;;26.42;54.38;100868.84;5039146;28;45452;-72
2023/09/11 03:24:38;;;;;;;;;14.25;13.50;;;;;26.57;53.86;100890.28;5037608;28;47396;-72
2023/09/11 03:27:04;;;;;;;;;15.50;14.50;;;;;26.56;54.09;100885.78;5038498;28;45510;-72
2023/09/11 03:29:29;;;;;;;;;14.25;13.75;;;;;26.68;54.08;100913.88;5038771;28;45280;-72
2023/09/11 03:31:54;;;;;;;;;20.00;19.00;;;;;26.36;54.14;100863.13;5038942;28;45582;-72
2023/09/11 03:34:20;;;;;;;;;17.50;17.50;;;;;26.58;54.14;100903.81;5034141;28;45483;-72
2023/09/11 03:36:45;;;;;;;;;13.75;12.75;;;;;26.50;54.17;100894.63;5038833;28;45480;-72
2023/09/11 03:39:10;;;;;;;;;16.75;15.75;;;;;26.43;54.33;100897.09;5038795;28;45457;-72
2023/09/11 03:41:36;;;;;;;;;18.00;18.00;;;;;26.35;53.69;100875.09;5038876;28;45576;-72
2023/09/11 03:44:01;;;;;;;;;19.50;17.00;;;;;26.47;54.21;100886.72;5038503;28;46384;-72
2023/09/11 03:46:27;;;;;;;;;15.00;15.00;;;;;26.33;54.21;100868.88;5038899;28;45458;-72
2023/09/11 03:48:52;;;;;;;;;18.75;18.75;;;;;26.44;54.31;100896.06;5038905;28;45630;-72
2023/09/11 03:51:17;;;;;;;;;20.75;20.75;;;;;26.40;54.07;100884.56;5038923;28;45439;-72
2023/09/11 03:53:43;;;;;;;;;20.75;19.50;;;;;26.42;54.23;100893.47;5037978;28;45492;-72
2023/09/11 03:56:10;;;;;;;;;19.00;17.25;;;;;26.28;54.36;100860.25;5037270;28;45674;-72
2023/09/11 03:58:39;;;;;;;;;20.00;19.25;;;;;26.26;54.23;100857.66;5037759;28;45528;-72
2023/09/11 04:01:05;;;;;;;;;19.75;19.75;;;;;26.30;54.36;100866.47;5054227;28;45268;-71
2023/09/11 04:03:30;;;;;;;;;23.50;20.50;;;;;26.18;54.56;100854.84;5038579;28;46552;-72
2023/09/11 04:05:56;;;;;;;;;23.75;22.50;;;;;26.19;53.96;100859.28;5038518;28;45378;-71
2023/09/11 04:08:21;;;;;;;;;20.75;19.25;;;;;26.21;54.35;100854.53;5037014;28;45422;-71
2023/09/11 04:10:47;;;;;;;;;17.75;16.00;;;;;26.30;53.94;100880.16;5053486;28;45532;-71
2023/09/11 04:13:12;;;;;;;;;18.00;17.00;;;;;26.33;53.85;100888.91;5038265;28;45657;-71
2023/09/11 04:15:40;;;;;;;;;16.50;15.25;;;;;26.11;53.69;100864.63;5038418;28;45451;-71
2023/09/11 04:18:06;;;;;;;;;15.50;15.50;;;;;26.32;53.80;100894.53;5038314;28;45636;-71
2023/09/11 04:20:35;;;;;;;;;15.00;15.00;;;;;26.15;53.61;100861.47;5038614;28;45423;-71
2023/09/11 04:23:01;;;;;;;;;12.75;12.75;;;;;26.30;53.71;100886.47;5036741;28;46575;-71
2023/09/11 04:25:27;;;;;;;;;15.00;15.00;;;;;26.30;53.56;100882.88;5038597;28;45649;-71
2023/09/11 04:27:53;;;;;;;;;14.00;13.75;;;;;26.11;53.83;100848.22;5037658;28;45511;-71
2023/09/11 04:30:18;;;;;;;;;13.00;13.00;;;;;26.16;54.23;100856.84;5036491;28;45545;-71
2023/09/11 04:32:44;;;;;;;;;14.00;14.00;;;;;25.92;53.57;100817.16;5053262;28;47087;-72
2023/09/11 04:35:10;;;;;;;;;14.50;14.00;;;;;26.22;53.62;100857.13;5038148;28;45394;-71
2023/09/11 04:37:36;;;;;;;;;12.50;11.50;;;;;26.05;53.69;100834.13;5036654;28;45371;-71
2023/09/11 04:40:05;;;;;;;;;12.25;12.25;;;;;26.20;53.78;100858.28;5036672;28;45562;-71
2023/09/11 04:42:30;;;;;;;;;10.00;10.00;;;;;26.15;53.70;100853.25;5037865;28;45492;-71
2023/09/11 04:44:58;;;;;;;;;15.50;12.00;;;;;25.98;53.86;100829.41;5038099;28;45482;-71
2023/09/11 04:47:24;;;;;;;;;13.00;11.25;;;;;26.18;54.02;100871.25;5036635;28;45349;-71
2023/09/11 04:49:58;;;;;;;;;16.00;14.25;;;;;25.98;54.13;100852.16;5053452;28;45395;-71
2023/09/11 04:52:23;;;;;;;;;13.50;13.00;;;;;25.87;53.64;100835.88;5037556;28;45594;-71
2023/09/11 04:54:49;;;;;;;;;10.50;10.50;;;;;25.96;53.49;100848.72;5037971;28;45377;-71
2023/09/11 04:57:17;;;;;;;;;14.75;11.00;;;;;25.95;53.94;100849.72;5029642;28;45530;-71
2023/09/11 04:59:44;;;;;;;;;11.25;10.00;;;;;25.91;54.05;100836.44;5036353;28;45554;-71
2023/09/11 05:02:09;;;;;;;;;15.00;13.25;;;;;25.84;53.71;100837.03;5037676;28;46262;-71
2023/09/11 05:04:35;;;;;;;;;13.25;10.75;;;;;25.84;53.65;100841.63;5037017;28;45383;-71
2023/09/11 05:07:01;;;;;;;;;17.25;15.50;;;;;25.75;54.02;100828.84;5056773;28;45419;-71
2023/09/11 05:09:26;;;;;;;;;14.00;13.00;;;;;25.76;53.86;100831.44;5039815;28;45613;-71
2023/09/11 05:11:52;;;;;;;;;12.50;12.25;;;;;25.71;54.04;100825.56;5040752;28;46674;-71
2023/09/11 05:14:17;;;;;;;;;15.75;14.50;;;;;25.78;54.10;100844.97;5041044;28;45415;-71
2023/09/11 05:16:43;;;;;;;;;12.50;11.50;;;;;25.97;54.31;100880.50;5041291;28;45478;-71
2023/09/11 05:19:11;;;;;;;;;12.75;12.75;;;;;25.78;54.54;100845.81;5039871;28;45657;-71
2023/09/11 05:21:37;;;;;;;;;13.50;13.50;;;;;25.91;54.39;100869.25;5040988;28;45379;-71
2023/09/11 05:24:06;;;;;;;;;14.75;13.00;;;;;25.80;54.49;100857.47;5040961;28;45241;-71
2023/09/11 05:26:32;;;;;;;;;11.75;11.00;;;;;25.85;54.50;100865.25;5038657;28;45466;-71
2023/09/11 05:28:57;;;;;;;;;12.00;9.25;;;;;25.70;54.40;100852.00;5039719;28;45511;-71
2023/09/11 05:31:23;;;;;;;;;14.00;11.50;;;;;25.84;54.52;100868.97;5041280;28;46421;-71
2023/09/11 05:33:48;;;;;;;;;14.25;13.75;;;;;25.62;54.57;100845.56;5040758;28;45361;-71
2023/09/11 05:36:16;;;;;;;;;15.25;12.00;;;;;25.61;54.89;100852.91;5040830;28;45639;-71
2023/09/11 05:38:42;;;;;;;;;13.25;13.25;;;;;25.62;55.13;100856.47;5040676;28;45260;-71
2023/09/11 05:41:12;;;;;;;;;13.00;11.75;;;;;25.64;54.53;100859.94;5040500;28;45338;-71
2023/09/11 05:43:40;;;;;;;;;13.50;12.75;;;;;25.73;55.53;100870.00;5040493;28;45510;-71
2023/09/11 05:46:06;;;;;;;;;15.50;13.25;;;;;25.64;55.09;100857.19;5040739;28;45319;-71
2023/09/11 05:48:31;;;;;;;;;13.25;12.00;;;;;25.80;55.36;100878.50;5040781;28;45461;-71
2023/09/11 05:51:00;;;;;;;;;14.50;14.50;;;;;25.74;55.07;100868.13;5040693;28;45352;-72
2023/09/11 05:53:26;;;;;;;;;13.75;13.75;;;;;25.60;55.48;100842.97;5040175;28;45327;-73
2023/09/11 05:55:53;;;;;;;;;14.50;14.50;;;;;25.76;54.92;100871.56;5034230;28;45342;-72
2023/09/11 07:08:03;;;;;;;;;13.50;13.00;;;;;25.67;56.24;100898.75;6145400;22;45749;-77
2023/09/11 07:10:28;;;;;;;;;13.25;13.25;;;;;25.68;55.57;100897.78;5051547;28;45401;-77
2023/09/11 07:12:53;;;;;;;;;16.75;16.25;;;;;25.67;55.90;100906.97;5054469;28;45310;-77
2023/09/11 07:15:19;;;;;;;;;13.50;12.00;;;;;25.52;55.84;100875.63;5047271;28;45347;-78
2023/09/11 07:17:45;;;;;;;;;15.75;14.00;;;;;25.64;55.92;100890.88;5026714;28;45390;-79
2023/09/11 07:20:12;;;;;;;;;12.50;12.50;;;;;25.63;55.73;100900.06;5030278;28;45468;-79
2023/09/11 07:22:37;;;;;;;;;14.00;12.00;;;;;25.66;56.28;100890.72;5037444;28;45442;-78
2023/09/11 07:25:03;;;;;;;;;16.00;12.00;;;;;25.77;56.10;100906.13;5029954;28;45342;-78
2023/09/11 07:27:33;;;;;;;;;10.75;10.75;;;;;25.78;55.16;100899.66;5027600;28;45388;-78
2023/09/11 07:29:59;;;;;;;;;14.50;13.50;;;;;25.80;54.94;100892.16;5030993;28;45648;-79
2023/09/11 07:32:25;;;;;;;;;20.00;16.75;;;;;25.80;55.59;100889.44;5031529;28;45377;-78
2023/09/11 07:34:50;;;;;;;;;10.75;10.75;;;;;25.77;54.82;100885.09;5031010;28;45566;-78
2023/09/11 07:37:16;;;;;;;;;15.25;14.25;;;;;25.77;55.54;100887.84;5030160;28;46172;-79
2023/09/11 07:39:41;;;;;;;;;11.75;11.25;;;;;25.89;55.32;100902.22;5028497;28;45489;-79
2023/09/11 07:42:07;;;;;;;;;13.00;13.00;;;;;25.88;54.98;100895.03;5017991;28;45534;-78
2023/09/11 07:44:32;;;;;;;;;13.25;13.25;;;;;25.94;55.31;100904.50;5029443;28;45544;-78
2023/09/11 07:46:57;;;;;;;;;13.50;12.00;;;;;25.94;55.07;100910.84;5024932;28;45804;-78
2023/09/11 07:49:23;;;;;;;;;14.50;12.50;;;;;25.90;55.32;100903.94;5028953;28;45386;-78
2023/09/11 07:51:48;;;;;;;;;16.00;15.00;;;;;25.86;54.05;100899.75;5018162;28;45445;-78
2023/09/11 07:54:13;;;;;;;;;15.00;14.00;;;;;25.89;54.42;100915.88;5023886;28;45510;-78
2023/09/11 07:56:39;;;;;;;;;11.75;11.75;;;;;25.86;54.64;100917.06;5025144;28;57759;-78
2023/09/11 07:59:04;;;;;;;;;15.25;13.00;;;;;25.84;54.46;100916.34;5021410;28;45289;-78
2023/09/11 08:01:30;;;;;;;;;16.75;15.25;;;;;25.89;54.92;100924.09;5018457;28;45496;-78
2023/09/11 08:03:55;;;;;;;;;16.25;15.00;;;;;25.86;55.48;100917.06;5026839;28;45461;-79
2023/09/11 08:06:22;;;;;;;;;16.25;14.00;;;;;25.87;55.40;100916.03;5026837;28;46696;-78
2023/09/11 08:08:48;;;;;;;;;14.50;14.50;;;;;25.94;55.08;100915.44;5040619;28;45666;-78
2023/09/11 08:11:18;;;;;;;;;14.25;14.00;;;;;25.99;55.11;100924.13;5038632;28;45497;-78
2023/09/11 08:13:46;;;;;;;;;17.00;15.75;;;;;25.93;55.57;100910.97;5019953;28;45465;-78
2023/09/11 08:16:12;;;;;;;;;15.75;15.75;;;;;26.03;55.24;100920.09;5026285;28;46857;-78
2023/09/11 08:18:37;;;;;;;;;14.00;13.50;;;;;25.95;55.24;100912.59;5028148;28;45457;-78
2023/09/11 08:21:04;;;;;;;;;15.00;15.00;;;;;26.01;55.66;100919.34;5034561;28;45401;-78
2023/09/11 08:23:29;;;;;;;;;15.00;13.25;;;;;26.03;55.43;100922.84;5031464;28;45318;-78
2023/09/11 08:25:59;;;;;;;;;16.00;14.50;;;;;25.95;55.00;100904.41;5023635;28;45471;-78
2023/09/11 08:28:24;;;;;;;;;16.50;13.00;;;;;26.06;55.34;100927.97;5025775;28;45515;-78
2023/09/11 08:30:50;;;;;;;;;19.25;19.00;;;;;26.07;55.35;100932.47;5024793;28;45639;-78
2023/09/11 08:33:16;;;;;;;;;17.50;15.50;;;;;26.07;55.13;100927.84;5023204;28;46585;-78
2023/09/11 08:35:42;;;;;;;;;16.50;14.00;;;;;26.10;55.84;100932.16;5035053;28;45607;-78
2023/09/11 08:38:08;;;;;;;;;13.75;13.00;;;;;26.13;55.63;100929.16;5030940;28;45439;-78
2023/09/11 08:40:33;;;;;;;;;14.25;14.25;;;;;26.12;55.10;100921.94;5027609;28;45363;-78
2023/09/11 08:42:59;;;;;;;;;16.00;15.50;;;;;26.07;55.08;100907.84;5036571;28;45520;-78
2023/09/11 08:45:26;;;;;;;;;13.25;13.25;;;;;26.12;55.31;100921.94;5026894;28;45389;-78
2023/09/11 08:47:56;;;;;;;;;14.25;14.00;;;;;26.20;55.33;100933.00;5038659;28;45565;-79
2023/09/11 08:50:30;;;;;;;;;15.25;13.50;;;;;26.16;55.04;100922.50;5022826;28;45472;-79
2023/09/11 08:52:58;;;;;;;;;15.50;14.75;;;;;26.12;55.38;100924.66;5039995;28;45373;-81
2023/09/11 08:55:25;;;;;;;;;15.25;14.25;;;;;26.22;54.78;100939.19;5033160;28;47051;-79
2023/09/11 08:57:52;;;;;;;;;17.00;13.75;;;;;26.15;54.36;100931.75;5028024;28;45749;-79
2023/09/11 09:00:18;;;;;;;;;17.25;15.50;;;;;26.14;54.45;100941.78;5030194;28;45415;-79
2023/09/11 09:02:47;;;;;;;;;15.75;15.75;;;;;26.12;54.68;100937.50;5035586;28;45329;-77
2023/09/11 09:05:15;;;;;;;;;11.25;11.25;;;;;26.18;54.96;100947.88;5021047;28;46104;-77
2023/09/11 09:07:43;;;;;;;;;15.25;13.75;;;;;26.06;55.04;100931.59;5035422;28;45413;-78
2023/09/11 09:10:09;;;;;;;;;13.25;12.25;;;;;26.22;55.24;100947.41;5033694;28;45312;-78
2023/09/11 09:12:35;;;;;;;;;12.75;12.75;;;;;26.25;54.98;100938.91;5030904;28;45437;-81
2023/09/11 09:15:03;;;;;;;;;13.50;13.50;;;;;26.30;55.31;100940.34;5024874;28;46071;-76
2023/09/11 09:17:29;;;;;;;;;14.75;14.75;;;;;26.31;54.90;100942.06;5033092;28;45888;-77
2023/09/11 09:19:54;;;;;;;;;15.50;15.50;;;;;26.29;54.46;100934.00;5032405;28;49089;-77
2023/09/11 09:22:19;;;;;;;;;13.25;12.25;;;;;26.22;54.23;100921.91;5038796;28;56981;-88
2023/09/11 09:24:54;;;;;;;;;15.00;14.50;;;;;26.26;54.66;100923.34;5030104;28;45378;-83
2023/09/11 09:27:21;;;;;;;;;17.25;14.50;;;;;26.32;54.48;100939.19;5029884;28;45428;-85
2023/09/11 09:29:48;;;;;;;;;17.00;15.25;;;;;26.34;54.73;100950.81;5033894;28;45535;-85
2023/09/11 09:32:14;;;;;;;;;15.00;13.75;;;;;26.37;54.86;100979.78;5018216;28;45633;-85
2023/09/11 09:34:49;;;;;;;;;14.50;13.25;;;;;26.29;55.25;101001.53;5032913;28;45516;-85
2023/09/11 09:37:16;;;;;;;;;14.50;14.50;;;;;26.30;54.83;101003.28;5009637;28;45351;-85
2023/09/11 09:39:42;;;;;;;;;14.00;14.00;;;;;26.47;54.64;101012.63;5049508;28;45563;-85
2023/09/11 09:42:08;;;;;;;;;16.00;14.00;;;;;26.44;54.81;101014.63;5031836;28;45440;-86
2023/09/11 09:44:38;;;;;;;;;16.50;16.25;;;;;26.38;54.98;100998.81;5024471;28;45422;-85
2023/09/11 09:47:13;;;;;;;;;14.50;12.75;;;;;26.54;54.99;101017.34;5023422;28;45283;-85
2023/09/11 09:49:44;;;;;;;;;14.25;14.25;;;;;26.60;54.83;101015.91;5026259;28;45385;-85
2023/09/11 09:52:10;;;;;;;;;15.00;14.25;;;;;26.56;54.79;101011.72;5026484;28;45321;-85
2023/09/11 09:54:46;;;;;;;;;18.00;17.00;;;;;26.52;55.52;100993.88;5028274;28;46046;-81
2023/09/11 09:57:13;;;;;;;;;16.75;15.75;;;;;26.60;55.98;101003.06;5044167;28;45264;-81
2023/09/11 09:59:41;;;;;;;;;18.25;15.00;;;;;26.66;56.11;101012.59;5038381;28;45251;-82
2023/09/11 10:02:11;;;;;;;;;13.25;13.25;;;;;26.62;56.12;101001.03;5034023;28;45453;-82
2023/09/11 10:04:37;;;;;;;;;15.25;14.00;;;;;26.68;56.80;100998.75;5027889;28;45665;-82
2023/09/11 10:07:02;;;;;;;;;17.25;15.25;;;;;26.66;56.71;100982.47;5035305;28;45314;-82
2023/09/11 10:09:28;;;;;;;;;16.75;16.50;;;;;26.79;56.64;100991.22;5030052;28;45467;-81
2023/09/11 10:11:53;;;;;;;;;14.00;13.50;;;;;26.84;56.51;100998.13;5029367;28;45735;-81
2023/09/11 10:14:18;;;;;;;;;14.75;12.00;;;;;26.83;56.65;100991.81;5030429;28;46057;-81
2023/09/11 10:16:45;;;;;;;;;12.50;12.00;;;;;26.85;56.30;100988.88;5030653;28;45390;-81
2023/09/11 10:19:12;;;;;;;;;13.75;13.50;;;;;26.83;56.43;100969.91;5030181;28;45420;-81
2023/09/11 10:21:37;;;;;;;;;11.50;11.00;;;;;26.85;56.58;100977.94;5029152;28;45350;-81
2023/09/11 10:24:03;;;;;;;;;13.00;12.25;;;;;26.85;56.56;100964.25;5023555;28;48528;-81
2023/09/11 10:26:43;;;;;;;;;13.50;13.00;;;;;26.81;55.69;100955.47;5029681;28;45296;-81
2023/09/11 10:29:20;;;;;;;;;18.50;14.50;;;;;26.92;55.93;100957.16;5038444;28;45484;-81
2023/09/11 10:31:53;;;;;;;;;18.50;13.50;;;;;27.01;55.94;100963.59;5027790;28;45455;-82
2023/09/11 10:34:19;;;;;;;;;15.75;14.00;;;;;27.07;55.71;100971.22;5031473;28;45580;-82
2023/09/11 10:36:53;;;;;;;;;14.50;14.50;;;;;27.05;55.84;100951.31;5028461;28;45647;-81
2023/09/11 10:39:20;;;;;;;;;11.00;10.00;;;;;27.08;55.77;100951.03;5025302;28;45343;-81
2023/09/11 10:41:45;;;;;;;;;13.25;13.25;;;;;27.08;56.11;100945.53;5018318;28;45332;-82
2023/09/11 10:44:11;;;;;;;;;11.50;10.75;;;;;27.21;55.77;100967.09;5022382;28;47829;-81
2023/09/11 10:46:38;;;;;;;;;12.25;12.25;;;;;27.12;55.61;100950.56;5036896;28;45315;-84
2023/09/11 10:49:22;;;;;;;;;15.50;14.50;;;;;27.26;56.02;100987.53;5037848;28;45510;-85
2023/09/11 10:51:49;;;;;;;;;14.75;14.75;;;;;27.27;55.63;100983.81;5027308;28;45728;-84
2023/09/11 10:54:16;;;;;;;;;12.50;12.00;;;;;27.24;55.51;100981.38;5030197;28;48138;-84
2023/09/11 10:56:43;;;;;;;;;14.00;12.50;;;;;27.28;55.75;100991.03;5029224;28;45450;-84
2023/09/11 10:59:09;;;;;;;;;13.50;12.75;;;;;27.30;55.33;100983.53;5024541;28;45376;-85
2023/09/11 11:01:36;;;;;;;;;12.25;11.75;;;;;27.37;54.90;100996.63;5037976;28;45551;-84
2023/09/11 11:04:04;;;;;;;;;14.00;13.75;;;;;27.29;54.99;100976.31;5033399;28;47180;-84
2023/09/11 11:06:31;;;;;;;;;11.25;11.25;;;;;27.40;54.89;100988.09;5032578;28;45411;-84
2023/09/11 11:08:57;;;;;;;;;14.00;12.50;;;;;27.33;54.75;100965.91;5032029;28;45443;-84
2023/09/11 11:11:29;;;;;;;;;12.50;11.50;;;;;27.36;54.64;100946.41;5029011;28;45576;-84
2023/09/11 11:14:14;;;;;;;;;12.25;10.25;;;;;27.45;54.08;100944.63;5030011;28;46060;-85
2023/09/11 11:16:53;;;;;;;;;10.25;10.25;;;;;27.35;54.20;100931.00;5026560;28;45380;-85
2023/09/11 11:19:32;;;;;;;;;14.75;12.25;;;;;27.43;54.31;100938.44;5029391;28;45330;-83
2023/09/11 11:22:00;;;;;;;;;11.00;11.00;;;;;27.42;54.18;100923.03;5036719;28;46017;-83
2023/09/11 11:24:25;;;;;;;;;10.25;8.75;;;;;27.40;53.82;100914.06;5029021;28;45465;-85
2023/09/11 11:26:56;;;;;;;;;11.00;11.00;;;;;27.37;53.91;100912.53;5024691;28;45521;-84
2023/09/11 11:29:22;;;;;;;;;11.50;11.25;;;;;27.32;54.19;100907.50;5027856;28;45418;-85
2023/09/11 11:31:53;;;;;;;;;11.50;10.00;;;;;27.34;54.45;100919.16;5020630;28;45393;-85
2023/09/11 11:34:24;;;;;;;;;10.50;10.50;;;;;27.35;54.22;100918.16;5025121;28;48175;-84
2023/09/11 11:36:50;;;;;;;;;12.00;12.00;;;;;27.37;53.98;100931.72;5033136;28;45567;-85
2023/09/11 11:39:16;;;;;;;;;11.75;11.00;;;;;27.27;54.84;100919.91;5030656;28;45279;-84
2023/09/11 11:41:43;;;;;;;;;9.75;8.75;;;;;27.37;54.43;100950.03;5020209;28;45350;-84
2023/09/11 11:44:08;;;;;;;;;11.00;10.50;;;;;27.25;54.47;100927.41;5027955;28;46361;-84
2023/09/11 11:46:35;;;;;;;;;7.00;7.00;;;;;27.32;54.99;100936.78;5030837;28;45421;-84
2023/09/11 11:49:00;;;;;;;;;12.00;11.00;;;;;27.26;55.13;100926.41;5035621;28;45533;-84
2023/09/11 11:51:30;;;;;;;;;9.00;9.00;;;;;27.35;54.96;100931.00;5019509;28;45556;-85
2023/09/11 11:53:56;;;;;;;;;11.00;11.00;;;;;27.32;54.64;100934.91;5036618;28;47361;-84
2023/09/11 11:56:21;;;;;;;;;9.75;9.25;;;;;27.28;54.54;100938.94;5020017;28;45303;-85
2023/09/11 11:58:47;;;;;;;;;9.00;9.00;;;;;27.34;54.78;100946.56;5039333;28;45515;-85
2023/09/11 12:01:12;;;;;;;;;11.00;11.00;;;;;27.25;54.71;100939.25;5033519;28;46758;-83
2023/09/11 12:03:49;;;;;;;;;10.50;9.50;;;;;27.39;54.71;100948.00;5032597;28;45474;-84
2023/09/11 12:06:14;;;;;;;;;13.25;12.75;;;;;27.29;54.83;100917.91;5027519;28;45506;-84
2023/09/11 12:08:41;;;;;;;;;11.00;10.00;;;;;27.32;54.35;100923.94;5023951;28;45540;-84
2023/09/11 12:11:08;;;;;;;;;14.50;10.75;;;;;27.37;53.95;100926.22;5027090;28;45549;-84
2023/09/11 12:13:34;;;;;;;;;10.50;8.25;;;;;27.35;54.68;100920.03;5022287;28;47320;-84
2023/09/11 12:16:00;;;;;;;;;10.00;10.00;;;;;27.33;53.84;100905.59;5024931;28;45434;-84
2023/09/11 12:18:30;;;;;;;;;10.75;10.75;;;;;27.32;53.36;100914.88;5038198;28;45490;-84
2023/09/11 12:21:06;;;;;;;;;10.25;7.75;;;;;27.27;54.20;100901.59;5027395;28;45925;-82